Time;durP1;ratioP1;P1;durP2;ratioP2;P2;SDS_P1;SDS_P2;PMS_P1;PMS_P2;Temp;Humidity;BMP_temperature;BMP_pressure;BME280_temperature;BME280_humidity;BME280_pressure;Samples;Min_cycle;Max_cycle;Signal;HPM_P1;HPM_P2
2024/04/20 00:01:51;;;;;;;2.65;0.52;;;6.20;99.90;;;;;;5331798;26;20045;-84
2024/04/20 00:04:17;;;;;;;0.10;0.10;;;6.20;99.90;;;;;;5331417;26;20037;-84
2024/04/20 00:06:45;;;;;;;0.10;0.10;;;6.10;99.90;;;;;;5342732;26;20389;-84
2024/04/20 00:09:11;;;;;;;0.10;0.10;;;6.00;99.90;;;;;;5312998;26;20033;-84
2024/04/20 00:11:37;;;;;;;0.13;0.13;;;6.00;99.90;;;;;;5338634;26;20037;-84
2024/04/20 00:14:03;;;;;;;0.20;0.20;;;6.00;99.90;;;;;;5337918;26;20042;-84
2024/04/20 00:16:30;;;;;;;0.57;0.57;;;6.00;99.90;;;;;;5340780;26;20040;-84
2024/04/20 00:18:56;;;;;;;1.30;0.63;;;5.90;99.90;;;;;;5341102;26;20049;-84
2024/04/20 00:21:22;;;;;;;0.13;0.13;;;5.80;99.90;;;;;;5324656;26;20475;-84
2024/04/20 00:23:48;;;;;;;0.17;0.17;;;5.70;99.90;;;;;;5316988;26;20387;-84
2024/04/20 00:26:14;;;;;;;0.30;0.30;;;5.80;99.90;;;;;;5323663;26;20042;-83
2024/04/20 00:28:40;;;;;;;0.43;0.43;;;5.70;99.90;;;;;;5333047;26;20048;-84
2024/04/20 00:31:07;;;;;;;0.52;0.52;;;5.60;99.90;;;;;;5330038;26;20041;-84
2024/04/20 00:33:33;;;;;;;0.10;0.10;;;5.60;99.90;;;;;;5312378;26;20081;-84
2024/04/20 00:35:59;;;;;;;0.32;0.32;;;5.60;99.90;;;;;;5325261;26;20034;-84
2024/04/20 00:38:25;;;;;;;0.65;0.47;;;5.60;99.90;;;;;;5326920;26;20042;-84
2024/04/20 00:40:55;;;;;;;0.10;0.10;;;5.50;99.90;;;;;;5329942;26;20341;-84
2024/04/20 00:43:22;;;;;;;0.20;0.20;;;5.50;99.90;;;;;;5333954;26;20044;-85
2024/04/20 00:45:48;;;;;;;0.20;0.20;;;5.50;99.90;;;;;;5342434;26;20029;-84
2024/04/20 00:48:15;;;;;;;0.10;0.10;;;5.50;99.90;;;;;;5336310;26;20040;-83
2024/04/20 00:50:42;;;;;;;0.10;0.10;;;5.50;99.90;;;;;;5331713;26;20046;-84
2024/04/20 00:53:13;;;;;;;0.10;0.10;;;5.60;99.90;;;;;;5340038;26;20033;-83
2024/04/20 00:55:40;;;;;;;0.10;0.10;;;5.60;99.90;;;;;;5342115;26;20028;-85
2024/04/20 00:58:09;;;;;;;0.10;0.10;;;5.50;99.90;;;;;;5337306;26;20031;-83
2024/04/20 01:00:38;;;;;;;0.10;0.10;;;5.50;99.90;;;;;;5323046;26;20031;-84
2024/04/20 01:03:04;;;;;;;0.10;0.10;;;5.60;99.90;;;;;;5327444;26;20041;-83
2024/04/20 01:05:32;;;;;;;0.30;0.30;;;5.50;99.90;;;;;;5331363;26;20045;-84
2024/04/20 01:07:58;;;;;;;0.63;0.63;;;5.50;99.90;;;;;;5339776;26;20056;-84
2024/04/20 01:10:25;;;;;;;0.10;0.10;;;5.50;99.90;;;;;;5331351;26;20382;-84
2024/04/20 01:13:02;;;;;;;0.10;0.10;;;5.50;99.90;;;;;;5317445;26;20045;-84
2024/04/20 01:15:30;;;;;;;0.35;0.35;;;5.50;99.90;;;;;;5330603;26;20362;-84
2024/04/20 01:17:56;;;;;;;3.13;1.27;;;5.60;99.90;;;;;;5337015;26;20045;-84
2024/04/20 01:20:22;;;;;;;0.93;0.40;;;5.50;99.90;;;;;;5341948;26;20488;-84
2024/04/20 01:22:49;;;;;;;8.68;1.20;;;5.60;99.90;;;;;;5333563;26;20041;-84
2024/04/20 01:25:16;;;;;;;0.10;0.10;;;5.60;99.90;;;;;;5317988;26;20054;-85
2024/04/20 01:27:44;;;;;;;0.30;0.30;;;5.60;99.90;;;;;;5321680;26;20037;-86
2024/04/20 01:30:14;;;;;;;0.45;0.32;;;5.60;99.90;;;;;;5324847;26;20037;-85
2024/04/20 01:32:40;;;;;;;0.17;0.17;;;5.60;99.90;;;;;;5345547;26;20159;-87
2024/04/20 01:35:07;;;;;;;0.10;0.10;;;5.60;99.90;;;;;;5347689;26;20221;-84
2024/04/20 01:37:33;;;;;;;2.65;1.05;;;5.60;99.90;;;;;;5335444;26;20019;-85
2024/04/20 01:39:59;;;;;;;0.10;0.10;;;5.60;99.90;;;;;;5310863;26;20033;-85
2024/04/20 01:42:25;;;;;;;0.40;0.40;;;5.60;99.90;;;;;;5329071;26;20057;-86
2024/04/20 01:44:51;;;;;;;1.08;1.08;;;5.60;99.90;;;;;;5347952;26;20037;-86
2024/04/20 01:47:17;;;;;;;0.10;0.10;;;5.60;99.90;;;;;;5353302;26;20042;-85
2024/04/20 01:49:43;;;;;;;0.10;0.10;;;5.60;99.90;;;;;;5334779;26;20009;-87
2024/04/20 01:52:10;;;;;;;0.13;0.13;;;5.60;99.90;;;;;;5359583;26;20005;-85
2024/04/20 01:54:36;;;;;;;0.35;0.35;;;5.60;99.90;;;;;;5338330;26;20013;-83
2024/04/20 01:57:02;;;;;;;0.52;0.52;;;5.60;99.90;;;;;;5343055;26;20042;-87
2024/04/20 01:59:29;;;;;;;0.90;0.90;;;5.60;99.90;;;;;;5340739;26;20046;-87
2024/04/20 02:01:57;;;;;;;0.63;0.63;;;5.60;99.90;;;;;;5339596;26;20053;-86
2024/04/20 02:04:24;;;;;;;0.10;0.10;;;5.60;99.90;;;;;;5340781;26;20034;-86
2024/04/20 02:06:50;;;;;;;5.38;0.95;;;5.60;99.90;;;;;;5327717;26;20024;-86
2024/04/20 02:09:17;;;;;;;0.10;0.10;;;5.60;99.90;;;;;;5366761;26;20005;-83
2024/04/20 02:11:43;;;;;;;0.20;0.20;;;5.60;99.90;;;;;;5363496;26;20005;-85
2024/04/20 02:14:09;;;;;;;0.20;0.20;;;5.60;99.90;;;;;;5353215;26;20014;-83
2024/04/20 02:16:35;;;;;;;0.20;0.20;;;5.50;99.90;;;;;;5343516;26;20010;-85
2024/04/20 02:19:01;;;;;;;0.40;0.40;;;5.50;99.90;;;;;;5353353;26;20033;-85
2024/04/20 02:21:28;;;;;;;0.80;0.80;;;5.50;99.90;;;;;;5338924;26;20565;-87
2024/04/20 02:23:54;;;;;;;0.45;0.45;;;5.50;99.90;;;;;;5345976;26;20042;-85
2024/04/20 02:26:20;;;;;;;0.10;0.10;;;5.50;99.90;;;;;;5345047;26;20033;-85
2024/04/20 02:28:46;;;;;;;0.20;0.20;;;5.50;99.90;;;;;;5327198;26;20025;-85
2024/04/20 02:31:12;;;;;;;0.13;0.13;;;5.50;99.90;;;;;;5318485;26;20000;-82
2024/04/20 02:33:40;;;;;;;0.20;0.20;;;5.50;99.90;;;;;;5348499;26;20505;-82
2024/04/20 02:36:07;;;;;;;0.50;0.50;;;5.40;99.90;;;;;;5356326;26;20013;-83
2024/04/20 02:38:33;;;;;;;0.10;0.10;;;5.30;99.90;;;;;;5344887;26;20051;-82
2024/04/20 02:40:59;;;;;;;1.15;0.85;;;5.20;1.00;;;;;;5328556;26;20061;-79
2024/04/20 02:43:25;;;;;;;0.45;0.45;;;5.00;1.00;;;;;;5328969;26;20038;-78
2024/04/20 02:45:52;;;;;;;0.10;0.10;;;4.70;8.50;;;;;;5319838;26;20030;-78
2024/04/20 02:48:18;;;;;;;0.25;0.25;;;4.60;6.40;;;;;;5338510;26;20498;-80
2024/04/20 02:50:44;;;;;;;0.45;0.45;;;4.40;51.20;;;;;;5325905;26;20042;-80
2024/04/20 02:53:10;;;;;;;0.68;0.68;;;4.30;99.90;;;;;;5321036;26;20046;-80
2024/04/20 02:55:37;;;;;;;0.17;0.17;;;4.40;99.90;;;;;;5325585;26;20034;-80
2024/04/20 02:58:03;;;;;;;0.20;0.20;;;4.40;99.90;;;;;;5334021;26;20037;-80
2024/04/20 03:00:29;;;;;;;0.10;0.10;;;4.30;99.90;;;;;;5339759;26;20241;-80
2024/04/20 03:02:55;;;;;;;0.13;0.13;;;4.20;99.90;;;;;;5327291;26;20033;-80
2024/04/20 03:05:21;;;;;;;0.20;0.20;;;4.20;99.90;;;;;;5310880;26;20033;-81
2024/04/20 03:07:48;;;;;;;0.10;0.10;;;4.20;99.90;;;;;;5332357;26;20036;-81
2024/04/20 03:10:14;;;;;;;0.20;0.20;;;4.30;99.90;;;;;;5332378;26;20379;-81
2024/04/20 03:12:40;;;;;;;0.10;0.10;;;4.20;99.90;;;;;;5320873;26;20034;-82
2024/04/20 03:15:07;;;;;;;0.63;0.63;;;4.20;99.90;;;;;;5337510;26;20037;-83
2024/04/20 03:17:33;;;;;;;0.25;0.25;;;4.20;99.90;;;;;;5332051;26;20382;-81
2024/04/20 03:19:59;;;;;;;0.10;0.10;;;4.10;99.90;;;;;;5325814;26;20032;-84
2024/04/20 03:22:25;;;;;;;0.20;0.20;;;4.20;99.90;;;;;;5336118;26;20352;-82
2024/04/20 03:24:52;;;;;;;0.40;0.40;;;4.20;99.90;;;;;;5313663;26;20060;-83
2024/04/20 03:27:18;;;;;;;0.10;0.10;;;4.30;99.90;;;;;;5337946;26;20482;-82
2024/04/20 03:29:45;;;;;;;0.20;0.20;;;4.20;99.90;;;;;;5287515;26;20038;-79
2024/04/20 03:32:11;;;;;;;0.20;0.20;;;4.30;99.90;;;;;;5311697;26;20041;-82
2024/04/20 03:34:37;;;;;;;0.10;0.10;;;4.30;73.40;;;;;;5325823;26;20033;-83
2024/04/20 03:37:11;;;;;;;0.50;0.30;;;4.30;58.00;;;;;;5343649;26;20037;-80
2024/04/20 03:39:38;;;;;;;0.20;0.20;;;4.40;38.30;;;;;;5311881;26;20032;-83
2024/04/20 03:42:04;;;;;;;0.45;0.45;;;4.40;1.00;;;;;;5318445;26;20042;-84
2024/04/20 03:44:30;;;;;;;0.10;0.10;;;4.40;1.00;;;;;;5320182;26;20403;-84
2024/04/20 03:46:56;;;;;;;0.15;0.15;;;4.40;1.00;;;;;;5328878;26;20415;-83
2024/04/20 03:49:23;;;;;;;0.10;0.10;;;4.40;1.00;;;;;;5335072;26;20029;-83
2024/04/20 03:51:49;;;;;;;0.10;0.10;;;4.40;1.00;;;;;;5357347;26;20033;-83
2024/04/20 03:54:15;;;;;;;0.10;0.10;;;4.30;1.00;;;;;;5352496;26;20413;-83
2024/04/20 03:56:41;;;;;;;0.20;0.20;;;4.20;1.00;;;;;;5370292;26;20031;-83
2024/04/20 03:59:08;;;;;;;0.15;0.15;;;4.20;1.00;;;;;;5394960;26;20031;-84
2024/04/20 04:01:34;;;;;;;0.10;0.10;;;4.20;1.00;;;;;;5365922;26;20036;-85
2024/04/20 04:04:00;;;;;;;0.28;0.28;;;4.10;1.00;;;;;;5407206;26;20059;-83
2024/04/20 04:06:26;;;;;;;0.10;0.10;;;4.20;1.00;;;;;;5378176;26;20493;-83
2024/04/20 04:08:52;;;;;;;0.20;0.20;;;4.10;1.00;;;;;;5375728;26;20028;-83
2024/04/20 04:11:18;;;;;;;0.40;0.40;;;4.10;1.00;;;;;;5377601;26;20048;-83
2024/04/20 04:13:45;;;;;;;0.50;0.50;;;4.20;1.00;;;;;;5371473;26;20035;-83
2024/04/20 04:16:12;;;;;;;0.10;0.10;;;4.00;1.00;;;;;;5372876;26;20034;-83
2024/04/20 04:18:38;;;;;;;0.38;0.38;;;4.10;1.00;;;;;;5364080;26;20390;-83
2024/04/20 04:21:05;;;;;;;0.22;0.22;;;4.10;1.00;;;;;;5378841;26;20031;-83
2024/04/20 04:23:31;;;;;;;0.25;0.25;;;4.20;1.00;;;;;;5366399;26;20035;-83
2024/04/20 04:25:57;;;;;;;0.15;0.15;;;4.20;1.00;;;;;;5352396;26;20043;-83
2024/04/20 04:28:23;;;;;;;5.13;0.47;;;4.20;1.00;;;;;;5348946;26;20035;-84
2024/04/20 04:30:49;;;;;;;0.45;0.45;;;4.10;1.00;;;;;;5375865;26;20035;-84
2024/04/20 04:33:15;;;;;;;0.20;0.20;;;4.10;1.00;;;;;;5377620;26;20480;-82
2024/04/20 04:35:41;;;;;;;0.22;0.22;;;4.10;1.00;;;;;;5380049;26;20036;-84
2024/04/20 04:38:08;;;;;;;0.20;0.20;;;4.10;1.00;;;;;;5375563;26;20040;-82
2024/04/20 04:40:34;;;;;;;0.10;0.10;;;4.10;1.00;;;;;;5374521;26;20383;-83
2024/04/20 04:43:00;;;;;;;0.38;0.38;;;4.10;1.00;;;;;;5334844;26;20036;-83
2024/04/20 04:45:26;;;;;;;0.20;0.20;;;4.10;1.00;;;;;;5370666;26;20040;-83
2024/04/20 04:47:52;;;;;;;0.10;0.10;;;4.10;1.00;;;;;;5397191;26;20040;-83
2024/04/20 04:50:19;;;;;;;0.65;0.65;;;4.10;1.00;;;;;;5403607;26;20036;-83
2024/04/20 04:52:45;;;;;;;0.10;0.10;;;3.90;1.00;;;;;;5324804;26;20049;-84
2024/04/20 04:55:11;;;;;;;0.57;0.57;;;3.90;1.00;;;;;;5340869;26;20025;-82
2024/04/20 04:57:37;;;;;;;0.20;0.20;;;3.90;1.00;;;;;;5333245;26;20025;-83
2024/04/20 05:00:05;;;;;;;1.30;1.20;;;3.90;1.00;;;;;;5328941;26;20369;-83
2024/04/20 05:02:31;;;;;;;0.50;0.50;;;3.90;1.00;;;;;;5342428;26;20025;-82
2024/04/20 05:04:57;;;;;;;0.30;0.30;;;4.00;1.00;;;;;;5328770;26;20013;-83
2024/04/20 05:07:23;;;;;;;0.30;0.30;;;4.00;1.00;;;;;;5307865;26;20028;-84
2024/04/20 05:09:49;;;;;;;0.10;0.10;;;4.10;1.00;;;;;;5315727;26;20500;-84
2024/04/20 05:12:16;;;;;;;0.25;0.25;;;4.20;1.00;;;;;;5331450;26;20033;-85
2024/04/20 05:14:42;;;;;;;0.20;0.20;;;4.20;1.00;;;;;;5336442;26;20890;-85
2024/04/20 05:17:08;;;;;;;0.28;0.28;;;4.30;1.00;;;;;;5313315;26;20037;-85
2024/04/20 05:19:34;;;;;;;0.20;0.20;;;4.40;1.00;;;;;;5351174;26;20049;-86
2024/04/20 05:22:00;;;;;;;0.32;0.32;;;4.50;1.00;;;;;;5310406;26;20131;-85
2024/04/20 05:24:26;;;;;;;12.30;1.75;;;4.50;1.00;;;;;;5303134;26;20037;-83
2024/04/20 05:26:53;;;;;;;0.17;0.17;;;4.60;1.00;;;;;;5328108;26;20037;-85
2024/04/20 05:29:19;;;;;;;0.47;0.47;;;4.70;1.00;;;;;;5327966;26;20037;-84
2024/04/20 05:31:45;;;;;;;1.85;1.75;;;4.70;1.00;;;;;;5319544;26;20383;-83
2024/04/20 05:34:11;;;;;;;0.65;0.65;;;4.70;1.00;;;;;;5283756;26;20475;-84
2024/04/20 05:36:37;;;;;;;0.47;0.47;;;4.80;1.00;;;;;;5329245;26;20056;-84
2024/04/20 05:39:03;;;;;;;0.35;0.35;;;4.80;1.00;;;;;;5332925;26;20057;-85
2024/04/20 05:41:29;;;;;;;0.90;0.60;;;4.80;1.00;;;;;;5293583;26;20382;-85
2024/04/20 05:43:56;;;;;;;0.22;0.22;;;4.90;1.00;;;;;;5304226;26;20417;-83
2024/04/20 05:46:22;;;;;;;0.57;0.57;;;5.00;99.90;;;;;;5334303;26;20033;-85
2024/04/20 05:48:48;;;;;;;0.88;0.80;;;5.10;99.90;;;;;;5341081;26;20057;-84
2024/04/20 05:51:15;;;;;;;0.88;0.88;;;5.20;99.90;;;;;;5338094;26;20068;-85
2024/04/20 05:53:41;;;;;;;0.10;0.10;;;5.10;99.90;;;;;;5339808;26;20044;-85
2024/04/20 05:56:07;;;;;;;0.20;0.20;;;5.20;99.90;;;;;;5316811;26;20040;-85
2024/04/20 05:58:33;;;;;;;0.10;0.10;;;5.30;99.90;;;;;;5326952;26;20028;-86
2024/04/20 06:00:59;;;;;;;0.10;0.10;;;5.20;99.90;;;;;;5338111;26;20011;-86
2024/04/20 06:03:26;;;;;;;0.55;0.45;;;5.40;99.90;;;;;;5374184;26;20036;-86
2024/04/20 06:05:52;;;;;;;0.55;0.55;;;5.50;99.90;;;;;;5348007;26;20044;-86
2024/04/20 06:08:18;;;;;;;1.30;0.77;;;5.60;99.90;;;;;;5381340;26;20035;-86
2024/04/20 06:10:55;;;;;;;0.60;0.60;;;5.90;99.90;;;;;;5374916;26;20032;-86
2024/04/20 06:13:21;;;;;;;0.95;0.65;;;6.00;99.90;;;;;;5378905;26;20401;-82
2024/04/20 06:15:47;;;;;;;0.47;0.45;;;6.00;99.90;;;;;;5374316;26;20032;-87
2024/04/20 06:18:14;;;;;;;3.72;0.65;;;6.10;99.90;;;;;;5388151;26;20448;-85
2024/04/20 06:20:42;;;;;;;0.60;0.60;;;6.50;99.90;;;;;;5360785;26;20040;-85
2024/04/20 06:23:10;;;;;;;0.82;0.82;;;6.70;99.90;;;;;;5389460;26;20049;-86
2024/04/20 06:25:38;;;;;;;0.60;0.60;;;7.00;99.90;;;;;;5405121;26;20012;-86
2024/04/20 06:28:05;;;;;;;0.32;0.32;;;7.30;99.90;;;;;;5401303;26;20032;-85
2024/04/20 06:30:31;;;;;;;0.52;0.52;;;7.50;86.10;;;;;;5392095;26;20424;-84
2024/04/20 06:32:57;;;;;;;13.98;1.10;;;7.60;46.50;;;;;;5356211;26;20047;-84
2024/04/20 06:35:23;;;;;;;0.30;0.30;;;7.70;1.00;;;;;;5396945;26;20032;-86
2024/04/20 06:37:50;;;;;;;0.40;0.40;;;7.60;1.00;;;;;;5352065;26;20027;-87
2024/04/20 06:40:16;;;;;;;0.35;0.35;;;7.80;1.00;;;;;;5372563;26;20044;-86
2024/04/20 06:42:47;;;;;;;0.30;0.30;;;7.90;1.00;;;;;;5399162;26;20025;-81
2024/04/20 06:45:13;;;;;;;0.30;0.30;;;7.90;1.00;;;;;;5400746;26;20032;-84
2024/04/20 06:47:39;;;;;;;0.63;0.60;;;7.60;1.00;;;;;;5395030;26;20369;-84
2024/04/20 06:50:07;;;;;;;0.20;0.20;;;7.60;1.00;;;;;;5350333;26;20330;-85
2024/04/20 06:52:34;;;;;;;0.75;0.75;;;7.50;1.00;;;;;;5383957;26;20028;-85
2024/04/20 06:55:00;;;;;;;0.20;0.20;;;7.80;1.00;;;;;;5417100;26;20031;-82
2024/04/20 06:57:26;;;;;;;0.68;0.68;;;8.00;99.90;;;;;;5391999;26;20004;-83
2024/04/20 06:59:57;;;;;;;0.30;0.30;;;8.30;99.90;;;;;;5397002;26;20032;-84
2024/04/20 07:02:24;;;;;;;0.40;0.28;;;8.20;99.90;;;;;;5418375;26;20023;-82
2024/04/20 07:04:52;;;;;;;0.30;0.30;;;8.30;99.90;;;;;;5412669;26;20036;-84
2024/04/20 07:07:19;;;;;;;0.10;0.10;;;8.30;99.90;;;;;;5406419;26;20031;-81
2024/04/20 07:09:48;;;;;;;0.20;0.20;;;8.40;99.90;;;;;;5406666;26;20378;-84
2024/04/20 07:12:16;;;;;;;0.30;0.30;;;8.20;99.90;;;;;;5395334;26;20003;-86
2024/04/20 07:14:43;;;;;;;1.45;1.20;;;8.10;99.90;;;;;;5397733;26;20007;-82
2024/04/20 07:17:09;;;;;;;0.20;0.20;;;8.10;87.30;;;;;;5402631;26;20686;-83
2024/04/20 07:19:36;;;;;;;0.75;0.28;;;8.30;99.90;;;;;;5427004;26;20004;-84
2024/04/20 07:22:03;;;;;;;0.35;0.35;;;8.50;39.60;;;;;;5405898;26;20003;-81
2024/04/20 07:24:29;;;;;;;0.47;0.47;;;8.60;1.00;;;;;;5365819;26;20020;-83
2024/04/20 07:26:56;;;;;;;0.17;0.17;;;8.50;1.00;;;;;;5355083;26;20375;-87
2024/04/20 07:29:22;;;;;;;0.20;0.20;;;8.50;1.00;;;;;;5406110;26;20040;-85
2024/04/20 07:31:51;;;;;;;0.45;0.45;;;8.30;1.00;;;;;;5382171;26;20043;-85
2024/04/20 07:34:31;;;;;;;0.50;0.50;;;8.30;1.00;;;;;;5369676;26;20027;-86
2024/04/20 07:36:58;;;;;;;0.10;0.10;;;8.60;1.00;;;;;;5388367;26;20055;-86
2024/04/20 07:39:24;;;;;;;0.20;0.20;;;8.70;1.00;;;;;;5400823;26;21082;-86
2024/04/20 07:41:50;;;;;;;0.15;0.15;;;8.80;1.00;;;;;;5383393;26;20376;-84
2024/04/20 07:44:16;;;;;;;0.43;0.43;;;8.80;1.00;;;;;;5403192;26;20037;-83
2024/04/20 07:46:58;;;;;;;0.20;0.20;;;8.90;1.00;;;;;;5396916;26;20469;-81
2024/04/20 07:49:24;;;;;;;0.25;0.25;;;9.20;1.00;;;;;;5382611;26;20039;-82
2024/04/20 07:51:50;;;;;;;3.03;1.23;;;9.10;1.00;;;;;;5399283;26;20039;-81
2024/04/20 07:54:19;;;;;;;0.35;0.35;;;8.90;1.00;;;;;;5375574;26;20365;-84
2024/04/20 07:56:46;;;;;;;0.10;0.10;;;8.90;1.00;;;;;;5380836;26;20560;-81
2024/04/20 07:59:12;;;;;;;0.35;0.35;;;8.80;1.00;;;;;;5379426;26;20032;-85
2024/04/20 08:01:38;;;;;;;0.30;0.30;;;8.80;99.90;;;;;;5407762;26;20028;-84
2024/04/20 08:04:04;;;;;;;0.20;0.20;;;8.90;99.90;;;;;;5366429;26;20032;-83
2024/04/20 08:06:30;;;;;;;0.63;0.63;;;9.10;99.90;;;;;;5400497;26;20027;-83
2024/04/20 08:08:56;;;;;;;0.73;0.73;;;9.40;99.90;;;;;;5400256;26;20372;-86
2024/04/20 08:11:23;;;;;;;0.10;0.10;;;9.40;99.90;;;;;;5396687;26;20072;-81
2024/04/20 08:13:49;;;;;;;0.20;0.20;;;9.30;99.90;;;;;;5364051;26;20032;-84
2024/04/20 08:16:15;;;;;;;0.20;0.20;;;9.50;99.90;;;;;;5376167;26;20067;-80
2024/04/20 08:18:41;;;;;;;0.50;0.30;;;9.50;99.90;;;;;;5377240;26;20501;-82
2024/04/20 08:21:08;;;;;;;0.15;0.15;;;9.50;99.90;;;;;;5380871;26;20188;-83
2024/04/20 08:23:34;;;;;;;0.20;0.20;;;9.40;99.90;;;;;;5402556;26;20037;-84
2024/04/20 08:26:00;;;;;;;0.25;0.25;;;9.40;99.90;;;;;;5381592;26;20040;-86
2024/04/20 08:28:26;;;;;;;0.20;0.20;;;9.70;99.90;;;;;;5378043;26;20037;-87
2024/04/20 08:30:53;;;;;;;2.00;0.45;;;9.90;99.90;;;;;;5383646;26;20394;-84
2024/04/20 08:33:19;;;;;;;0.30;0.30;;;10.00;99.90;;;;;;5357716;26;20146;-81
2024/04/20 08:35:45;;;;;;;0.20;0.20;;;9.90;99.90;;;;;;5402844;26;20028;-84
2024/04/20 08:38:11;;;;;;;4.75;1.48;;;9.70;99.90;;;;;;5401986;26;20035;-80
2024/04/20 08:40:38;;;;;;;0.20;0.20;;;9.90;99.90;;;;;;5381031;26;20469;-82
2024/04/20 08:43:05;;;;;;;0.35;0.35;;;10.40;99.90;;;;;;5353135;26;20158;-87
2024/04/20 08:45:33;;;;;;;0.20;0.20;;;10.00;99.90;;;;;;5350931;26;20123;-84
2024/04/20 08:48:01;;;;;;;0.13;0.13;;;10.10;99.90;;;;;;5374581;26;20039;-86
2024/04/20 08:50:29;;;;;;;0.20;0.20;;;10.30;99.90;;;;;;5349100;26;20028;-89
2024/04/20 08:52:59;;;;;;;0.40;0.40;;;10.10;99.90;;;;;;5390844;26;20370;-84
2024/04/20 08:55:26;;;;;;;1.90;0.30;;;10.00;99.90;;;;;;5387868;26;20040;-82
2024/04/20 08:57:52;;;;;;;1.55;1.17;;;10.00;99.90;;;;;;5401971;26;20024;-81
2024/04/20 09:00:19;;;;;;;0.30;0.30;;;9.60;99.90;;;;;;5378128;26;20028;-82
2024/04/20 09:02:46;;;;;;;0.32;0.32;;;9.50;99.90;;;;;;5378896;26;20035;-83
2024/04/20 09:05:12;;;;;;;0.63;0.63;;;9.80;99.90;;;;;;5367771;26;20023;-83
2024/04/20 09:07:38;;;;;;;0.17;0.17;;;9.90;99.90;;;;;;5370593;26;20027;-82
2024/04/20 09:10:05;;;;;;;0.20;0.20;;;9.80;99.90;;;;;;5400759;26;20028;-85
2024/04/20 09:12:31;;;;;;;0.20;0.20;;;10.10;99.90;;;;;;5407433;26;20370;-85
2024/04/20 09:14:58;;;;;;;0.52;0.52;;;9.70;99.90;;;;;;5353199;26;20036;-82
2024/04/20 09:17:24;;;;;;;0.30;0.30;;;9.40;99.90;;;;;;5401464;26;20039;-84
2024/04/20 09:19:53;;;;;;;0.47;0.47;;;9.50;99.90;;;;;;5371518;26;20044;-86
2024/04/20 09:22:20;;;;;;;0.50;0.50;;;9.60;99.90;;;;;;5404356;26;20442;-81
2024/04/20 09:24:46;;;;;;;0.10;0.10;;;9.70;99.90;;;;;;5381233;26;20153;-84
2024/04/20 09:27:12;;;;;;;3.63;1.15;;;9.50;99.90;;;;;;5397904;26;20035;-87
2024/04/20 09:29:39;;;;;;;0.10;0.10;;;9.50;99.90;;;;;;5371503;26;20054;-85
2024/04/20 09:32:07;;;;;;;0.20;0.20;;;10.10;99.90;;;;;;5400155;26;20024;-83
2024/04/20 09:34:36;;;;;;;0.57;0.57;;;10.40;99.90;;;;;;5367175;26;20028;-85
2024/04/20 09:37:02;;;;;;;0.20;0.20;;;10.40;99.90;;;;;;5412816;26;20044;-87
2024/04/20 09:39:28;;;;;;;0.22;0.22;;;10.60;99.90;;;;;;5369255;26;20040;-83
2024/04/20 09:41:55;;;;;;;1.35;0.70;;;10.40;99.90;;;;;;5376269;26;20372;-82
2024/04/20 09:44:22;;;;;;;0.40;0.40;;;10.70;99.90;;;;;;5377167;26;20039;-85
2024/04/20 09:46:50;;;;;;;0.25;0.25;;;10.90;99.90;;;;;;5398616;26;20488;-85
2024/04/20 09:49:16;;;;;;;1.17;0.20;;;11.00;99.90;;;;;;5401690;26;20029;-83
2024/04/20 09:51:57;;;;;;;0.10;0.10;;;11.20;99.90;;;;;;5375440;26;20032;-81
2024/04/20 09:54:30;;;;;;;;;;;11.80;99.90;;;;;;5408103;26;20024;-81
2024/04/20 09:56:58;;;;;;;0.10;0.10;;;11.70;99.90;;;;;;5396808;26;19953;-82
2024/04/20 09:59:26;;;;;;;0.20;0.20;;;10.80;99.90;;;;;;5411619;26;20028;-83
2024/04/20 10:01:54;;;;;;;0.68;0.30;;;10.50;99.90;;;;;;5376612;26;20027;-83
2024/04/20 10:04:23;;;;;;;0.10;0.10;;;10.50;99.90;;;;;;5392420;26;20036;-83
2024/04/20 10:06:50;;;;;;;0.20;0.20;;;11.00;99.90;;;;;;5402125;26;20043;-85
2024/04/20 10:09:18;;;;;;;0.13;0.13;;;11.00;99.90;;;;;;5383423;26;20468;-80
2024/04/20 10:11:45;;;;;;;0.32;0.32;;;11.20;99.90;;;;;;5400558;26;20040;-84
2024/04/20 10:14:11;;;;;;;0.10;0.10;;;11.00;99.90;;;;;;5403995;26;20387;-83
2024/04/20 10:16:40;;;;;;;0.65;0.57;;;11.00;99.90;;;;;;5383674;26;20039;-84
2024/04/20 10:19:06;;;;;;;0.10;0.10;;;10.80;99.90;;;;;;5402731;26;20039;-84
2024/04/20 10:21:32;;;;;;;0.20;0.20;;;10.90;99.90;;;;;;5400308;26;20040;-88
2024/04/20 10:23:59;;;;;;;0.20;0.20;;;11.20;99.90;;;;;;5374011;26;20037;-86
2024/04/20 10:26:29;;;;;;;1.35;1.08;;;11.20;99.90;;;;;;5398709;26;20041;-87
2024/04/20 10:29:09;;;;;;;0.20;0.20;;;11.50;99.90;;;;;;5370026;26;21155;-85
2024/04/20 10:31:36;;;;;;;0.20;0.20;;;11.80;99.90;;;;;;5402364;26;20484;-86
2024/04/20 10:34:02;;;;;;;0.10;0.10;;;11.60;99.90;;;;;;5378399;26;20269;-83
2024/04/20 10:36:29;;;;;;;0.10;0.10;;;11.70;99.90;;;;;;5411702;26;20031;-85
2024/04/20 10:39:06;;;;;;;0.30;0.30;;;11.10;99.90;;;;;;5351155;26;20450;-80
2024/04/20 10:41:37;;;;;;;0.10;0.10;;;10.60;99.90;;;;;;5369080;26;20036;-84
2024/04/20 10:44:14;;;;;;;0.10;0.10;;;10.60;99.90;;;;;;5360167;26;20523;-80
2024/04/20 10:46:47;;;;;;;0.10;0.10;;;10.40;99.90;;;;;;5384174;26;20048;-83
2024/04/20 10:49:14;;;;;;;0.10;0.10;;;10.40;99.90;;;;;;5400785;26;20377;-83
2024/04/20 10:51:57;;;;;;;0.40;0.40;;;10.40;99.90;;;;;;5379119;26;20035;-83
2024/04/20 10:54:25;;;;;;;0.20;0.20;;;10.40;99.90;;;;;;5403345;26;20035;-83
2024/04/20 10:56:54;;;;;;;0.10;0.10;;;10.40;99.90;;;;;;5357235;26;20051;-82
2024/04/20 10:59:21;;;;;;;0.13;0.13;;;10.60;99.90;;;;;;5380859;26;20043;-83
2024/04/20 11:01:47;;;;;;;0.20;0.20;;;10.70;99.90;;;;;;5382974;26;20036;-81
2024/04/20 11:04:14;;;;;;;0.40;0.20;;;10.60;99.90;;;;;;5407130;26;20032;-81
2024/04/20 11:06:41;;;;;;;0.10;0.10;;;10.50;99.90;;;;;;5381058;26;20052;-79
2024/04/20 11:09:11;;;;;;;0.82;0.60;;;10.40;99.90;;;;;;5350568;26;20055;-81
2024/04/20 11:11:38;;;;;;;1.77;0.40;;;10.60;99.90;;;;;;5400216;26;20031;-84
2024/04/20 11:14:05;;;;;;;0.13;0.13;;;10.10;99.90;;;;;;5400994;26;20039;-80
2024/04/20 11:16:32;;;;;;;0.22;0.13;;;10.00;99.90;;;;;;5377545;26;20127;-79
2024/04/20 11:19:01;;;;;;;0.38;0.38;;;10.00;99.90;;;;;;5378037;26;20027;-83
2024/04/20 11:21:28;;;;;;;0.17;0.17;;;9.80;99.90;;;;;;5382685;26;20035;-79
2024/04/20 11:23:54;;;;;;;0.20;0.20;;;9.60;99.90;;;;;;5401886;26;20052;-81
2024/04/20 11:26:23;;;;;;;0.30;0.30;;;9.50;99.90;;;;;;5373838;26;20040;-80
2024/04/20 11:28:49;;;;;;;0.20;0.20;;;9.50;99.90;;;;;;5362852;26;20044;-83
2024/04/20 11:31:16;;;;;;;0.10;0.10;;;9.10;1.00;;;;;;5391747;26;20044;-83
2024/04/20 11:33:46;;;;;;;0.20;0.20;;;8.30;59.70;;;;;;5371087;26;20048;-83
2024/04/20 11:36:17;;;;;;;0.20;0.20;;;7.50;1.00;;;;;;5370829;26;20036;-86
2024/04/20 11:38:45;;;;;;;0.75;0.75;;;7.10;99.90;;;;;;5371857;26;20459;-81
2024/04/20 11:41:19;;;;;;;0.20;0.20;;;6.70;99.90;;;;;;5351138;26;20036;-79
2024/04/20 11:43:46;;;;;;;0.10;0.10;;;6.50;99.90;;;;;;5371976;26;20044;-81
2024/04/20 11:46:12;;;;;;;0.38;0.38;;;6.30;99.90;;;;;;5376202;26;20047;-79
2024/04/20 11:48:38;;;;;;;0.20;0.20;;;6.10;99.90;;;;;;5408706;26;20034;-86
2024/04/20 11:51:07;;;;;;;0.20;0.20;;;6.00;1.00;;;;;;5382995;26;20035;-79
2024/04/20 11:56:23;;;;;;;0.35;0.35;;;6.00;1.00;;;;;;5405456;26;20039;-81
2024/04/20 11:58:52;;;;;;;0.20;0.20;;;6.10;28.80;;;;;;5395435;26;20469;-80
2024/04/20 12:01:18;;;;;;;0.20;0.20;;;6.30;80.00;;;;;;5377407;26;20032;-81
2024/04/20 12:03:45;;;;;;;0.30;0.30;;;6.40;45.50;;;;;;5408085;26;20039;-81
2024/04/20 12:06:12;;;;;;;0.88;0.35;;;6.60;94.20;;;;;;5402002;26;20035;-81
2024/04/20 12:08:41;;;;;;;0.85;0.40;;;6.90;18.80;;;;;;5407256;26;20036;-81
2024/04/20 12:11:08;;;;;;;0.63;0.38;;;7.30;1.00;;;;;;5393350;26;20041;-81
2024/04/20 12:13:35;;;;;;;0.35;0.35;;;7.50;1.00;;;;;;5415739;26;20031;-83
2024/04/20 12:16:02;;;;;;;0.20;0.20;;;7.90;1.00;;;;;;5413747;26;20031;-81
2024/04/20 12:18:28;;;;;;;0.17;0.17;;;8.20;99.90;;;;;;5410933;26;20037;-81
2024/04/20 12:20:54;;;;;;;0.10;0.10;;;8.60;99.90;;;;;;5379787;26;20492;-84
2024/04/20 12:23:20;;;;;;;0.10;0.10;;;8.80;99.90;;;;;;5415433;26;20036;-82
2024/04/20 12:25:48;;;;;;;0.10;0.10;;;9.10;56.10;;;;;;5368810;26;20376;-80
2024/04/20 12:28:15;;;;;;;0.20;0.20;;;9.30;1.00;;;;;;5406312;26;20035;-86
2024/04/20 12:30:41;;;;;;;0.20;0.20;;;9.40;99.90;;;;;;5348932;26;20036;-82
2024/04/20 12:33:07;;;;;;;0.73;0.73;;;9.50;99.90;;;;;;5414413;26;20031;-84
2024/04/20 12:35:36;;;;;;;0.38;0.38;;;9.70;99.90;;;;;;5365591;26;20047;-85
2024/04/20 12:38:04;;;;;;;0.10;0.10;;;9.80;99.90;;;;;;5392746;26;20044;-86
2024/04/20 12:40:30;;;;;;;0.68;0.65;;;9.90;99.90;;;;;;5379263;26;20059;-83
2024/04/20 12:42:56;;;;;;;0.30;0.30;;;10.10;99.90;;;;;;5402360;26;20027;-82
2024/04/20 12:45:26;;;;;;;0.20;0.20;;;10.00;1.00;;;;;;5390384;26;20032;-85
2024/04/20 12:47:52;;;;;;;0.25;0.20;;;10.30;72.20;;;;;;5358196;26;20031;-85
2024/04/20 12:50:19;;;;;;;0.80;0.68;;;10.40;4.00;;;;;;5382473;26;20465;-85
2024/04/20 12:52:45;;;;;;;0.40;0.40;;;10.70;1.00;;;;;;5402624;26;20032;-85
2024/04/20 12:55:13;;;;;;;0.10;0.10;;;11.00;1.00;;;;;;5401858;26;20035;-84
2024/04/20 12:57:39;;;;;;;0.50;0.50;;;11.40;1.00;;;;;;5374108;26;20040;-82
2024/04/20 13:00:06;;;;;;;0.30;0.28;;;11.50;99.90;;;;;;5334138;26;20240;-82